createdAt,value
2022-10-11T00:02:38.457Z,100307.25
2022-10-11T00:05:40.453Z,100311.78
2022-10-11T00:08:41.953Z,100305.28
2022-10-11T00:11:43.530Z,100304.25
2022-10-11T00:14:44.988Z,100301.81
2022-10-11T00:17:47.185Z,100307.31
2022-10-11T00:20:48.579Z,100307.09
2022-10-11T00:23:50.361Z,100309.06
2022-10-11T00:26:51.814Z,100308.56
2022-10-11T00:29:53.468Z,100307.38
2022-10-11T00:32:54.924Z,100309.53
2022-10-11T00:35:58.669Z,100312.00
2022-10-11T00:39:00.148Z,100314.66
2022-10-11T00:42:01.815Z,100311.31
2022-10-11T00:45:31.147Z,100307.31
2022-10-11T00:48:50.406Z,100303.81
2022-10-11T00:51:58.454Z,100300.19
2022-10-11T00:55:04.881Z,100308.03
2022-10-11T00:58:07.330Z,100312.66
2022-10-11T01:01:09.029Z,100312.66
2022-10-11T01:04:10.628Z,100320.25
2022-10-11T01:07:13.405Z,100321.06
2022-10-11T01:10:14.849Z,100311.25
2022-10-11T01:13:47.371Z,100311.53
2022-10-11T01:16:56.845Z,100316.50
2022-10-11T01:20:21.540Z,100309.34
2022-10-11T01:23:42.541Z,100309.59
2022-10-11T01:27:37.067Z,100309.34
2022-10-11T01:30:38.966Z,100305.75
2022-10-11T01:33:49.879Z,100311.59
2022-10-11T01:37:05.651Z,100309.91
2022-10-11T01:40:16.333Z,100311.47
2022-10-11T01:43:20.288Z,100313.63
2022-10-11T01:46:22.330Z,100311.22
2022-10-11T01:49:23.676Z,100305.56
2022-10-11T01:52:33.500Z,100314.78
2022-10-11T01:55:49.685Z,100317.09
2022-10-11T01:59:12.302Z,100311.63
2022-10-11T02:02:41.148Z,100307.75
2022-10-11T02:06:01.192Z,100320.72
2022-10-11T02:09:10.960Z,100318.41
2022-10-11T02:12:17.985Z,100322.91
2022-10-11T02:15:22.644Z,100319.34
2022-10-11T02:18:29.965Z,100322.63
2022-10-11T02:21:34.440Z,100321.28
2022-10-11T02:24:40.099Z,100312.97
2022-10-11T02:27:45.396Z,100305.94
2022-10-11T02:30:49.574Z,100306.97
2022-10-11T02:34:09.580Z,100300.69
2022-10-11T02:37:26.665Z,100306.13
2022-10-11T02:40:33.406Z,100307.28
2022-10-11T02:43:43.504Z,100309.03
2022-10-11T02:46:46.612Z,100311.38
2022-10-11T02:49:48.053Z,100316.53
2022-10-11T02:52:49.820Z,100318.19
2022-10-11T02:55:53.380Z,100309.75
2022-10-11T02:58:54.800Z,100317.63
2022-10-11T03:01:56.292Z,100313.97
2022-10-11T03:04:57.753Z,100318.28
2022-10-11T03:07:59.288Z,100321.25
2022-10-11T03:11:00.978Z,100312.06
2022-10-11T03:14:02.564Z,100313.88
2022-10-11T03:17:23.752Z,100319.84
2022-10-11T03:20:25.428Z,100323.16
2022-10-11T03:23:26.889Z,100329.91
2022-10-11T03:26:28.341Z,100329.41
2022-10-11T03:29:29.818Z,100330.22
2022-10-11T03:32:31.276Z,100331.22
2022-10-11T03:35:32.697Z,100327.31
2022-10-11T03:38:34.269Z,100333.72
2022-10-11T03:41:35.725Z,100333.22
2022-10-11T03:44:38.659Z,100329.19
2022-10-11T03:47:40.505Z,100333.25
2022-10-11T03:50:42.301Z,100330.50
2022-10-11T03:53:43.814Z,100337.59
2022-10-11T03:56:45.318Z,100335.13
2022-10-11T03:59:48.007Z,100338.41
2022-10-11T04:02:49.460Z,100337.75
2022-10-11T04:05:51.001Z,100334.81
2022-10-11T04:08:52.541Z,100332.84
2022-10-11T04:11:53.940Z,100336.97
2022-10-11T04:14:55.321Z,100344.13
2022-10-11T04:17:56.739Z,100346.13
2022-10-11T04:20:58.147Z,100343.97
2022-10-11T04:23:59.584Z,100345.97
2022-10-11T04:27:01.026Z,100352.41
2022-10-11T04:30:02.608Z,100343.78
2022-10-11T04:33:04.020Z,100344.13
2022-10-11T04:36:06.194Z,100341.84
2022-10-11T04:39:08.548Z,100354.38
2022-10-11T04:42:10.195Z,100348.09
2022-10-11T04:45:11.584Z,100348.44
2022-10-11T04:48:13.993Z,100346.13
2022-10-11T04:51:15.442Z,100348.75
2022-10-11T04:54:16.874Z,100359.97
2022-10-11T04:57:18.303Z,100344.13
2022-10-11T05:00:19.789Z,100356.97
2022-10-11T05:03:21.370Z,100367.88
2022-10-11T05:06:23.044Z,100364.25
2022-10-11T05:09:24.561Z,100371.16
2022-10-11T05:12:26.174Z,100375.78
2022-10-11T05:15:28.096Z,100371.97
2022-10-11T05:18:29.956Z,100376.59
2022-10-11T05:21:32.001Z,100375.63
2022-10-11T05:24:33.480Z,100369.53
2022-10-11T05:27:34.947Z,100369.38
2022-10-11T05:30:36.418Z,100380.09
2022-10-11T05:33:38.321Z,100373.81
2022-10-11T05:36:39.840Z,100375.28
2022-10-11T05:39:41.259Z,100376.63
2022-10-11T05:42:42.902Z,100375.09
2022-10-11T05:45:45.221Z,100376.03
2022-10-11T05:48:46.685Z,100387.22
2022-10-11T05:51:48.086Z,100385.19
2022-10-11T05:54:49.544Z,100387.63
2022-10-11T05:57:55.872Z,100382.56
2022-10-11T06:00:57.436Z,100391.00
2022-10-11T06:03:58.970Z,100399.22
2022-10-11T06:07:00.363Z,100402.97
2022-10-11T06:10:01.869Z,100409.78
2022-10-11T06:13:03.384Z,100414.16
2022-10-11T06:16:05.432Z,100420.69
2022-10-11T06:19:06.984Z,100421.03
2022-10-11T06:22:11.764Z,100428.97
2022-10-11T06:25:13.185Z,100432.72
2022-10-11T06:28:14.714Z,100429.81
2022-10-11T06:31:16.182Z,100433.63
2022-10-11T06:34:17.575Z,100433.91
2022-10-11T06:37:19.349Z,100432.75
2022-10-11T06:40:20.737Z,100444.94
2022-10-11T06:43:22.698Z,100442.97
2022-10-11T06:46:26.669Z,100456.81
2022-10-11T06:49:28.107Z,100456.78
2022-10-11T06:52:29.615Z,100461.69
2022-10-11T06:55:31.769Z,100460.75
2022-10-11T06:58:33.454Z,100466.00
2022-10-11T07:01:34.893Z,100472.06
2022-10-11T07:04:36.477Z,100478.09
2022-10-11T07:07:37.912Z,100482.25
2022-10-11T07:10:39.308Z,100489.38
2022-10-11T07:13:41.064Z,100486.47
2022-10-11T07:16:42.504Z,100487.78
2022-10-11T07:19:43.972Z,100489.44
2022-10-11T07:22:45.406Z,100487.81
2022-10-11T07:25:47.319Z,100492.81
2022-10-11T07:28:48.927Z,100496.44
2022-10-11T07:31:50.918Z,100492.16
2022-10-11T07:34:52.341Z,100495.44
2022-10-11T07:37:53.811Z,100496.69
2022-10-11T07:40:55.282Z,100495.75
2022-10-11T07:43:59.118Z,100495.28
2022-10-11T07:47:00.556Z,100501.28
2022-10-11T07:50:02.213Z,100499.91
2022-10-11T07:53:04.135Z,100499.09
2022-10-11T07:56:06.534Z,100499.75
2022-10-11T07:59:08.357Z,100497.47
2022-10-11T08:02:11.999Z,100497.28
2022-10-11T08:05:13.707Z,100497.50
2022-10-11T08:08:15.247Z,100496.47
2022-10-11T08:11:28.478Z,100495.47
2022-10-11T08:14:29.909Z,100490.97
2022-10-11T08:17:31.301Z,100505.19
2022-10-11T08:20:33.094Z,100508.31
2022-10-11T08:23:34.785Z,100502.78
2022-10-11T08:26:36.330Z,100507.06
2022-10-11T08:29:37.748Z,100510.50
2022-10-11T08:32:39.704Z,100512.25
2022-10-11T08:35:41.124Z,100515.94
2022-10-11T08:38:42.664Z,100509.81
2022-10-11T08:41:56.411Z,100518.03
2022-10-11T08:45:11.007Z,100524.28
2022-10-11T08:48:18.470Z,100523.66
2022-10-11T08:51:38.522Z,100527.50
2022-10-11T08:54:49.376Z,100529.78
2022-10-11T08:57:54.095Z,100536.63
2022-10-11T09:00:57.935Z,100534.00
2022-10-11T09:04:03.709Z,100540.13
2022-10-11T09:07:08.873Z,100536.56
2022-10-11T09:10:31.909Z,100532.69
2022-10-11T09:13:45.758Z,100531.72
2022-10-11T09:17:05.547Z,100533.72
2022-10-11T09:20:15.793Z,100532.59
2022-10-11T09:23:51.993Z,100538.06
2022-10-11T09:27:12.821Z,100530.72
2022-10-11T09:30:20.139Z,100536.00
2022-10-11T09:33:39.946Z,100534.16
2022-10-11T09:36:57.545Z,100534.03
2022-10-11T09:40:27.253Z,100525.09
2022-10-11T09:43:28.738Z,100533.16
2022-10-11T09:46:30.756Z,100529.63
2022-10-11T09:49:38.773Z,100523.53
2022-10-11T09:52:51.536Z,100524.78
2022-10-11T09:56:01.741Z,100534.22
2022-10-11T09:59:30.971Z,100536.81
2022-10-11T10:02:49.542Z,100533.28
2022-10-11T10:06:13.868Z,100538.50
2022-10-11T10:09:27.064Z,100537.75
2022-10-11T10:12:30.403Z,100537.19
2022-10-11T10:15:37.260Z,100535.13
2022-10-11T10:18:51.867Z,100536.75
2022-10-11T10:21:55.480Z,100538.41
2022-10-11T10:25:00.093Z,100545.50
2022-10-11T10:28:04.858Z,100527.44
2022-10-11T10:31:22.251Z,100522.69
2022-10-11T10:34:33.475Z,100523.25
2022-10-11T10:37:42.672Z,100533.47
2022-10-11T10:40:48.165Z,100527.06
2022-10-11T10:43:57.060Z,100526.50
2022-10-11T10:47:01.533Z,100533.47
2022-10-11T10:50:18.835Z,100536.09
2022-10-11T10:53:29.420Z,100539.53
2022-10-11T10:56:38.778Z,100531.69
2022-10-11T10:59:46.307Z,100537.41
2022-10-11T11:03:05.505Z,100535.91
2022-10-11T11:06:12.112Z,100528.53
2022-10-11T11:09:22.779Z,100524.41
2022-10-11T11:12:37.507Z,100527.97
2022-10-11T11:15:42.875Z,100520.16
2022-10-11T11:18:58.308Z,100517.91
2022-10-11T11:22:15.983Z,100518.06
2022-10-11T11:25:48.229Z,100513.34
2022-10-11T11:29:19.745Z,100512.19
2022-10-11T11:32:55.589Z,100506.25
2022-10-11T11:36:03.094Z,100504.50
2022-10-11T11:39:11.110Z,100497.63
2022-10-11T11:42:26.482Z,100497.38
2022-10-11T11:45:33.683Z,100497.78
2022-10-11T11:48:35.542Z,100481.03
2022-10-11T11:51:42.708Z,100479.53
2022-10-11T11:55:04.176Z,100481.66
2022-10-11T11:58:33.935Z,100478.38
2022-10-11T12:02:01.412Z,100485.94
2022-10-11T12:05:06.689Z,100480.56
2022-10-11T12:08:37.843Z,100480.00
2022-10-11T12:11:41.428Z,100483.41
2022-10-11T12:14:42.917Z,100485.84
2022-10-11T12:17:56.501Z,100484.78
2022-10-11T12:21:16.673Z,100479.50
2022-10-11T12:24:18.021Z,100479.97
2022-10-11T12:27:39.707Z,100478.59
2022-10-11T12:30:47.114Z,100478.06
2022-10-11T12:34:02.641Z,100474.75
2022-10-11T12:37:19.564Z,100471.06
2022-10-11T12:40:54.818Z,100480.31
2022-10-11T12:44:14.792Z,100481.16
2022-10-11T12:47:32.847Z,100464.31
2022-10-11T12:50:37.411Z,100460.69
2022-10-11T12:54:27.548Z,100452.31
2022-10-11T12:57:53.147Z,100456.81
2022-10-11T13:00:55.577Z,100461.41
2022-10-11T13:04:00.988Z,100463.53
2022-10-11T13:07:07.447Z,100461.72
2022-10-11T13:10:15.842Z,100455.56
2022-10-11T13:13:24.686Z,100459.09
2022-10-11T13:16:29.284Z,100458.56
2022-10-11T13:19:32.922Z,100452.25
2022-10-11T13:22:35.760Z,100451.28
2022-10-11T13:25:37.735Z,100441.63
2022-10-11T13:28:39.269Z,100446.88
2022-10-11T13:31:41.124Z,100454.09
2022-10-11T13:34:46.669Z,100450.75
2022-10-11T13:37:48.802Z,100450.44
2022-10-11T13:40:51.295Z,100447.09
2022-10-11T13:43:53.408Z,100451.03
2022-10-11T13:46:55.085Z,100446.28
2022-10-11T13:50:16.977Z,100447.09
2022-10-11T13:53:18.313Z,100443.28
2022-10-11T13:56:19.812Z,100442.56
2022-10-11T13:59:28.041Z,100447.75
2022-10-11T14:02:30.068Z,100440.44
2022-10-11T14:05:36.756Z,100440.34
2022-10-11T14:08:46.665Z,100435.28
2022-10-11T14:11:48.744Z,100433.00
2022-10-11T14:14:50.110Z,100434.63
2022-10-11T14:17:51.699Z,100433.09
2022-10-11T14:20:53.183Z,100435.63
2022-10-11T14:24:07.434Z,100439.75
2022-10-11T14:27:17.248Z,100435.53
2022-10-11T14:30:26.602Z,100435.34
2022-10-11T14:33:28.967Z,100438.94
2022-10-11T14:36:30.416Z,100437.53
2022-10-11T14:39:33.113Z,100435.59
2022-10-11T14:42:34.544Z,100431.66
2022-10-11T14:45:36.584Z,100435.09
2022-10-11T14:48:54.208Z,100433.00
2022-10-11T14:51:58.472Z,100435.63
2022-10-11T14:55:00.599Z,100432.22
2022-10-11T14:58:02.423Z,100437.59
2022-10-11T15:01:03.923Z,100433.97
2022-10-11T15:04:05.402Z,100436.78
2022-10-11T15:07:07.144Z,100441.41
2022-10-11T15:10:27.844Z,100436.22
2022-10-11T15:13:29.251Z,100430.13
2022-10-11T15:16:31.130Z,100434.75
2022-10-11T15:19:32.710Z,100431.34
2022-10-11T15:22:34.114Z,100434.06
2022-10-11T15:25:37.729Z,100423.00
2022-10-11T15:28:39.257Z,100420.84
2022-10-11T15:31:40.820Z,100419.28
2022-10-11T15:34:42.291Z,100423.88
2022-10-11T15:37:44.314Z,100419.06
2022-10-11T15:40:46.936Z,100415.00
2022-10-11T15:43:49.336Z,100422.56
2022-10-11T15:46:51.099Z,100419.13
2022-10-11T15:49:52.556Z,100414.59
2022-10-11T15:52:54.491Z,100415.88
2022-10-11T15:55:59.061Z,100420.88
2022-10-11T15:59:00.556Z,100415.66
2022-10-11T16:02:02.066Z,100413.94
2022-10-11T16:05:03.897Z,100417.53
2022-10-11T16:08:05.462Z,100410.63
2022-10-11T16:11:08.250Z,100419.13
2022-10-11T16:14:09.769Z,100413.34
2022-10-11T16:17:11.334Z,100414.19
2022-10-11T16:20:13.166Z,100406.91
2022-10-11T16:23:15.305Z,100407.13
2022-10-11T16:26:16.729Z,100405.72
2022-10-11T16:29:18.435Z,100406.06
2022-10-11T16:32:20.390Z,100403.66
2022-10-11T16:35:22.050Z,100400.53
2022-10-11T16:38:23.472Z,100398.72
2022-10-11T16:41:24.951Z,100401.13
2022-10-11T16:44:27.743Z,100395.16
2022-10-11T16:47:29.189Z,100405.41
2022-10-11T16:50:33.340Z,100406.75
2022-10-11T16:53:37.313Z,100398.88
2022-10-11T16:56:40.102Z,100408.16
2022-10-11T16:59:42.049Z,100407.28
2022-10-11T17:02:43.809Z,100417.09
2022-10-11T17:05:45.260Z,100418.88
2022-10-11T17:08:47.108Z,100421.03
2022-10-11T17:11:48.726Z,100415.06
2022-10-11T17:14:50.729Z,100406.44
2022-10-11T17:17:55.627Z,100410.22
2022-10-11T17:21:04.449Z,100418.50
2022-10-11T17:24:06.697Z,100412.41
2022-10-11T17:27:08.394Z,100411.22
2022-10-11T17:30:10.828Z,100418.72
2022-10-11T17:33:12.202Z,100420.44
2022-10-11T17:36:19.461Z,100423.75
2022-10-11T17:39:23.412Z,100424.56
2022-10-11T17:42:24.988Z,100423.44
2022-10-11T17:45:26.636Z,100429.19
2022-10-11T17:48:29.044Z,100430.91
2022-10-11T17:51:32.132Z,100430.63
2022-10-11T17:54:33.807Z,100418.41
2022-10-11T17:57:35.524Z,100422.38
2022-10-11T18:00:39.025Z,100422.53
2022-10-11T18:03:41.565Z,100426.00
2022-10-11T18:06:45.108Z,100430.44
2022-10-11T18:09:46.706Z,100431.44
2022-10-11T18:12:52.233Z,100428.53
2022-10-11T18:15:54.033Z,100432.50
2022-10-11T18:18:57.383Z,100438.59
2022-10-11T18:22:01.998Z,100437.78
2022-10-11T18:25:06.890Z,100432.66
2022-10-11T18:28:08.448Z,100442.03
2022-10-11T18:31:14.136Z,100435.16
2022-10-11T18:34:16.266Z,100429.66
2022-10-11T18:37:17.848Z,100433.31
2022-10-11T18:40:19.411Z,100431.34
2022-10-11T18:43:21.039Z,100428.03
2022-10-11T18:46:23.845Z,100438.75
2022-10-11T18:49:25.651Z,100433.47
2022-10-11T18:52:27.229Z,100437.44
2022-10-11T18:55:28.857Z,100429.56
2022-10-11T18:58:31.797Z,100431.84
2022-10-11T19:01:40.072Z,100437.94
2022-10-11T19:04:41.954Z,100428.22
2022-10-11T19:07:43.605Z,100435.47
2022-10-11T19:10:45.497Z,100436.13
2022-10-11T19:13:47.092Z,100433.19
2022-10-11T19:16:51.414Z,100436.63
2022-10-11T19:19:53.097Z,100431.19
2022-10-11T19:22:54.704Z,100431.53
2022-10-11T19:25:59.309Z,100432.00
2022-10-11T19:29:06.571Z,100437.78
2022-10-11T19:32:08.253Z,100439.94
2022-10-11T19:35:10.091Z,100432.19
2022-10-11T19:38:11.770Z,100433.00
2022-10-11T19:41:15.684Z,100428.22
2022-10-11T19:44:17.432Z,100427.22
2022-10-11T19:47:19.035Z,100432.19
2022-10-11T19:50:20.653Z,100431.00
2022-10-11T19:53:22.417Z,100433.81
2022-10-11T19:56:24.505Z,100434.47
2022-10-11T19:59:28.046Z,100428.47
2022-10-11T20:02:29.858Z,100435.22
2022-10-11T20:05:37.335Z,100442.91
2022-10-11T20:08:39.452Z,100441.75
2022-10-11T20:11:41.003Z,100449.47
2022-10-11T20:14:42.837Z,100447.75
2022-10-11T20:17:50.325Z,100444.44
2022-10-11T20:20:56.841Z,100450.59
2022-10-11T20:24:01.425Z,100443.91
2022-10-11T20:27:06.885Z,100444.06
2022-10-11T20:30:09.536Z,100443.91
2022-10-11T20:33:11.154Z,100443.03
2022-10-11T20:36:23.866Z,100441.19
2022-10-11T20:39:25.465Z,100441.94
2022-10-11T20:42:29.755Z,100439.41
2022-10-11T20:45:31.437Z,100447.75
2022-10-11T20:48:33.937Z,100444.88
2022-10-11T20:51:38.316Z,100452.34
2022-10-11T20:54:41.491Z,100452.81
2022-10-11T20:57:42.908Z,100457.69
2022-10-11T21:00:44.414Z,100457.47
2022-10-11T21:03:46.189Z,100466.50
2022-10-11T21:06:48.598Z,100456.66
2022-10-11T21:09:49.999Z,100456.53
2022-10-11T21:12:51.377Z,100461.88
2022-10-11T21:15:53.229Z,100464.34
2022-10-11T21:18:57.597Z,100462.25
2022-10-11T21:21:59.058Z,100453.56
2022-10-11T21:25:00.550Z,100455.19
2022-10-11T21:28:03.040Z,100446.69
2022-10-11T21:31:12.579Z,100448.97
2022-10-11T21:34:14.136Z,100444.63
2022-10-11T21:37:15.575Z,100452.81
2022-10-11T21:40:17.357Z,100444.50
2022-10-11T21:43:18.786Z,100443.72
2022-10-11T21:46:41.712Z,100447.84
2022-10-11T21:49:47.503Z,100444.06
2022-10-11T21:52:49.095Z,100452.16
2022-10-11T21:55:57.370Z,100447.66
2022-10-11T21:58:58.802Z,100446.13
2022-10-11T22:02:02.011Z,100444.88
2022-10-11T22:05:03.807Z,100444.53
2022-10-11T22:08:05.259Z,100435.97
2022-10-11T22:11:07.824Z,100437.88
2022-10-11T22:14:09.327Z,100437.78
2022-10-11T22:17:10.760Z,100439.97
2022-10-11T22:20:12.193Z,100440.50
2022-10-11T22:23:13.770Z,100428.13
2022-10-11T22:26:18.310Z,100437.31
2022-10-11T22:29:19.723Z,100434.41
2022-10-11T22:32:21.164Z,100438.31
2022-10-11T22:35:22.989Z,100434.69
2022-10-11T22:38:25.299Z,100429.38
2022-10-11T22:41:26.664Z,100426.38
2022-10-11T22:44:28.239Z,100431.69
2022-10-11T22:47:29.636Z,100428.53
2022-10-11T22:50:31.049Z,100428.88
2022-10-11T22:53:32.641Z,100433.34
2022-10-11T22:56:34.097Z,100430.97
2022-10-11T22:59:35.711Z,100438.50
2022-10-11T23:02:37.108Z,100426.13
2022-10-11T23:05:38.571Z,100434.47
2022-10-11T23:08:40.197Z,100433.75
2022-10-11T23:11:42.696Z,100431.41
2022-10-11T23:14:44.327Z,100433.34
2022-10-11T23:17:46.130Z,100435.34
2022-10-11T23:20:47.605Z,100429.59
2022-10-11T23:23:52.294Z,100426.44
2022-10-11T23:26:53.683Z,100430.63
2022-10-11T23:29:55.119Z,100429.06
2022-10-11T23:32:56.765Z,100430.34
2022-10-11T23:35:58.257Z,100438.63
2022-10-11T23:38:59.763Z,100432.38
2022-10-11T23:42:01.196Z,100427.88
2022-10-11T23:45:02.811Z,100431.94
2022-10-11T23:48:04.544Z,100424.34
2022-10-11T23:51:06.495Z,100438.00
2022-10-11T23:54:08.127Z,100429.47
2022-10-11T23:57:09.639Z,100425.22
